Time;durP1;ratioP1;P1;durP2;ratioP2;P2;SDS_P1;SDS_P2;PMS_P1;PMS_P2;Temp;Humidity;BMP_temperature;BMP_pressure;BME280_temperature;BME280_humidity;BME280_pressure;Samples;Min_cycle;Max_cycle;Signal;HPM_P1;HPM_P2
2023/03/19 00:01:46;;;;;;;;;4.50;4.00;;;;;9.87;75.23;99454.84;5116123;28;8835;-61
2023/03/19 00:04:15;;;;;;;;;5.50;5.50;;;;;9.81;75.02;99458.81;5115054;28;8843;-61
2023/03/19 00:06:42;;;;;;;;;3.25;3.00;;;;;9.74;75.54;99455.03;5114686;28;9551;-61
2023/03/19 00:09:11;;;;;;;;;5.50;5.50;;;;;9.67;75.19;99453.84;5114788;28;8851;-61
2023/03/19 00:11:38;;;;;;;;;3.00;3.00;;;;;9.62;75.49;99458.69;5115431;28;8835;-61
2023/03/19 00:14:06;;;;;;;;;5.00;5.00;;;;;9.60;75.66;99462.44;5115703;28;9738;-61
2023/03/19 00:16:34;;;;;;;;;1.00;1.00;;;;;9.56;75.62;99461.03;5115435;28;8824;-61
2023/03/19 00:19:02;;;;;;;;;1.00;1.00;;;;;9.53;75.58;99456.81;5115814;28;8958;-61
2023/03/19 00:21:31;;;;;;;;;6.00;3.00;;;;;9.56;75.50;99464.53;5115488;28;8847;-61
2023/03/19 00:24:01;;;;;;;;;3.00;2.50;;;;;9.56;75.34;99461.88;5115574;28;8955;-62
2023/03/19 00:26:28;;;;;;;;;3.50;3.50;;;;;9.55;75.46;99460.19;5115353;28;8819;-61
2023/03/19 00:28:56;;;;;;;;;2.00;2.00;;;;;9.56;75.55;99459.19;5114659;28;8816;-61
2023/03/19 00:31:24;;;;;;;;;3.00;3.00;;;;;9.58;75.24;99454.59;5115644;28;8862;-61
2023/03/19 00:33:52;;;;;;;;;4.00;3.75;;;;;9.56;75.23;99459.19;5115745;28;9548;-60
2023/03/19 00:36:20;;;;;;;;;2.50;2.50;;;;;9.53;75.55;99453.31;5115253;28;8879;-62
2023/03/19 00:38:48;;;;;;;;;3.00;3.00;;;;;9.46;75.38;99454.78;5115655;28;8950;-61
2023/03/19 00:41:17;;;;;;;;;3.00;2.00;;;;;9.41;75.91;99457.81;5115571;28;8828;-59
2023/03/19 00:43:45;;;;;;;;;5.00;4.00;;;;;9.40;75.26;99466.75;5115161;28;8820;-61
2023/03/19 00:46:13;;;;;;;;;3.50;3.50;;;;;9.43;75.43;99450.56;5115748;28;8836;-61
2023/03/19 00:48:41;;;;;;;;;3.50;3.50;;;;;9.47;75.25;99452.00;5115178;28;8875;-61
2023/03/19 00:51:09;;;;;;;;;5.00;4.50;;;;;9.53;75.26;99459.47;5115079;28;8871;-61
2023/03/19 00:53:36;;;;;;;;;2.50;1.50;;;;;9.54;75.34;99458.50;5115570;28;8831;-60
2023/03/19 00:56:04;;;;;;;;;6.25;6.00;;;;;9.59;75.17;99460.78;5115624;28;8831;-61
2023/03/19 00:58:32;;;;;;;;;4.00;3.50;;;;;9.58;74.92;99456.44;5119001;28;9527;-61
2023/03/19 01:01:00;;;;;;;;;5.00;3.50;;;;;9.55;74.87;99465.50;5119620;28;8824;-61
2023/03/19 01:03:28;;;;;;;;;6.00;4.00;;;;;9.56;74.85;99459.19;5119824;28;8963;-60
2023/03/19 01:05:56;;;;;;;;;3.50;3.50;;;;;9.66;75.00;99467.25;5119423;28;8861;-62
2023/03/19 01:08:25;;;;;;;;;4.00;3.50;;;;;9.73;74.60;99465.78;5120155;28;8858;-61
2023/03/19 01:10:53;;;;;;;;;4.00;3.00;;;;;9.80;74.51;99458.97;5119849;28;8846;-61
2023/03/19 01:13:20;;;;;;;;;4.00;3.50;;;;;9.83;74.41;99464.88;5119653;28;8862;-61
2023/03/19 01:15:48;;;;;;;;;3.00;3.00;;;;;9.87;73.77;99468.13;5119010;28;8906;-61
2023/03/19 01:18:16;;;;;;;;;3.50;3.00;;;;;9.91;74.18;99473.06;5118964;28;9497;-60
2023/03/19 01:20:43;;;;;;;;;4.00;4.00;;;;;9.98;74.10;99470.72;5119257;28;8823;-61
2023/03/19 01:23:11;;;;;;;;;3.00;3.00;;;;;10.03;74.04;99472.03;5118179;28;8913;-60
2023/03/19 01:25:39;;;;;;;;;4.00;4.00;;;;;10.04;73.52;99472.88;5118726;28;8862;-61
2023/03/19 01:28:07;;;;;;;;;4.00;3.25;;;;;10.01;74.32;99470.47;5118948;28;9773;-61
2023/03/19 01:30:35;;;;;;;;;6.75;6.00;;;;;10.01;74.02;99467.81;5118335;28;8846;-60
2023/03/19 01:33:03;;;;;;;;;2.00;2.00;;;;;10.01;74.04;99468.63;5118870;28;8864;-61
2023/03/19 01:35:30;;;;;;;;;6.00;6.00;;;;;10.03;74.17;99463.22;5118603;28;8820;-61
2023/03/19 01:37:58;;;;;;;;;7.50;7.00;;;;;10.07;74.22;99465.50;5118954;28;8823;-61
2023/03/19 01:40:25;;;;;;;;;4.50;4.00;;;;;10.09;73.78;99463.53;5118491;28;8824;-61
2023/03/19 01:42:53;;;;;;;;;0.00;0.00;;;;;10.09;73.87;99465.38;5119758;28;8832;-61
2023/03/19 01:45:21;;;;;;;;;6.50;6.50;;;;;10.08;74.06;99463.69;5119374;28;8832;-58
2023/03/19 01:47:49;;;;;;;;;4.00;4.00;;;;;10.08;73.89;99455.72;5118555;28;8823;-61
2023/03/19 01:50:16;;;;;;;;;7.00;4.50;;;;;10.08;73.51;99461.84;5118749;28;8828;-61
2023/03/19 01:52:44;;;;;;;;;3.25;2.50;;;;;10.07;73.78;99454.84;5119003;28;8831;-62
2023/03/19 01:55:12;;;;;;;;;5.00;5.00;;;;;10.07;73.95;99452.19;5119209;28;8836;-60
2023/03/19 01:57:40;;;;;;;;;5.50;4.00;;;;;10.06;73.90;99449.66;5119028;28;8832;-62
2023/03/19 02:00:07;;;;;;;;;6.75;5.50;;;;;10.02;74.20;99449.03;5119120;28;9490;-61
2023/03/19 02:02:35;;;;;;;;;2.50;2.50;;;;;10.01;73.77;99451.84;5119101;28;8886;-59
2023/03/19 02:05:03;;;;;;;;;3.75;3.25;;;;;9.97;74.10;99455.72;5117790;28;8859;-61
2023/03/19 02:07:31;;;;;;;;;3.00;3.00;;;;;9.89;73.98;99450.22;5117942;28;8858;-60
2023/03/19 02:10:00;;;;;;;;;4.00;4.00;;;;;9.76;74.57;99455.72;5116558;28;8831;-61
2023/03/19 02:12:28;;;;;;;;;3.00;3.00;;;;;9.63;74.95;99455.06;5117618;28;8835;-61
2023/03/19 02:14:55;;;;;;;;;3.00;3.00;;;;;9.51;74.69;99449.94;5118022;28;8831;-61
2023/03/19 02:17:23;;;;;;;;;6.00;3.25;;;;;9.39;75.26;99446.47;5117994;28;8847;-60
2023/03/19 02:19:51;;;;;;;;;3.00;3.00;;;;;9.30;75.35;99449.91;5118216;28;9506;-62
2023/03/19 02:22:19;;;;;;;;;3.00;3.00;;;;;9.29;75.71;99456.19;5118006;28;9465;-62
2023/03/19 02:24:46;;;;;;;;;3.00;3.00;;;;;9.34;74.89;99451.31;5118680;28;8812;-61
2023/03/19 02:27:14;;;;;;;;;3.00;3.00;;;;;9.40;75.07;99447.31;5118095;28;8832;-60
2023/03/19 02:29:42;;;;;;;;;3.50;3.50;;;;;9.47;75.23;99451.16;5118392;28;8929;-60
2023/03/19 02:32:10;;;;;;;;;3.75;3.75;;;;;9.51;75.08;99448.13;5117386;28;8808;-61
2023/03/19 02:34:38;;;;;;;;;3.25;2.25;;;;;9.56;74.34;99448.56;5117240;28;8812;-60
2023/03/19 02:37:05;;;;;;;;;3.75;3.25;;;;;9.61;74.75;99445.53;5117607;28;8840;-61
2023/03/19 02:39:33;;;;;;;;;4.00;4.00;;;;;9.66;74.52;99452.13;5117728;28;8866;-61
2023/03/19 02:42:00;;;;;;;;;3.50;3.25;;;;;9.71;74.40;99449.13;5117740;28;8852;-62
2023/03/19 02:44:28;;;;;;;;;0.75;0.75;;;;;9.74;74.26;99443.53;5118633;28;8850;-61
2023/03/19 02:46:56;;;;;;;;;3.25;3.00;;;;;9.76;73.87;99453.06;5116147;28;8855;-61
2023/03/19 02:49:24;;;;;;;;;3.25;3.25;;;;;9.79;74.48;99450.16;5116340;28;8844;-59
2023/03/19 02:51:51;;;;;;;;;6.00;4.00;;;;;9.81;74.20;99460.66;5116596;28;8844;-61
2023/03/19 02:54:19;;;;;;;;;3.50;3.00;;;;;9.82;74.04;99451.72;5116195;28;8917;-62
2023/03/19 02:56:47;;;;;;;;;6.00;4.00;;;;;9.85;73.69;99448.78;5117356;28;8828;-61
2023/03/19 02:59:15;;;;;;;;;3.00;3.00;;;;;9.88;73.94;99451.19;5117316;28;8820;-61
2023/03/19 03:01:43;;;;;;;;;0.25;0.00;;;;;9.90;74.27;99446.59;5117836;28;8832;-62
2023/03/19 03:04:10;;;;;;;;;3.50;3.50;;;;;9.96;73.87;99446.91;5117703;28;8828;-61
2023/03/19 03:06:38;;;;;;;;;4.00;4.00;;;;;10.01;73.90;99443.88;5117386;28;8916;-61
2023/03/19 03:09:06;;;;;;;;;3.50;3.25;;;;;10.06;73.34;99441.66;5117434;28;8820;-61
2023/03/19 03:11:34;;;;;;;;;3.75;3.00;;;;;10.06;73.61;99447.84;5117739;28;8828;-61
2023/03/19 03:14:01;;;;;;;;;3.00;3.00;;;;;10.05;73.52;99448.81;5117170;28;8859;-61
2023/03/19 03:16:29;;;;;;;;;4.75;3.75;;;;;10.06;74.04;99444.34;5117308;28;8851;-60
2023/03/19 03:18:57;;;;;;;;;2.50;2.50;;;;;10.03;74.11;99449.94;5116964;28;8904;-62
2023/03/19 03:21:25;;;;;;;;;1.00;1.00;;;;;10.00;74.09;99452.78;5117429;28;8834;-60
2023/03/19 03:23:52;;;;;;;;;3.00;3.00;;;;;10.00;74.28;99453.66;5117247;28;9497;-62
2023/03/19 03:26:20;;;;;;;;;1.50;1.50;;;;;9.99;74.22;99451.97;5117088;28;8859;-62
2023/03/19 03:28:48;;;;;;;;;2.50;1.50;;;;;9.99;73.75;99448.44;5117460;28;8828;-61
2023/03/19 03:31:15;;;;;;;;;4.50;4.00;;;;;9.95;73.89;99447.88;5117158;28;8921;-61
2023/03/19 03:33:43;;;;;;;;;3.25;2.50;;;;;9.98;74.24;99446.78;5117455;28;8831;-61
2023/03/19 03:36:12;;;;;;;;;2.00;1.00;;;;;10.03;74.09;99444.59;5116843;28;9494;-61
2023/03/19 03:38:40;;;;;;;;;3.00;3.00;;;;;10.07;74.07;99449.53;5117460;28;8844;-61
2023/03/19 03:41:07;;;;;;;;;3.25;3.25;;;;;10.14;73.52;99441.84;5116817;28;8808;-62
2023/03/19 03:43:35;;;;;;;;;3.25;3.25;;;;;10.18;73.84;99438.78;5117706;28;8863;-61
2023/03/19 03:46:03;;;;;;;;;1.50;1.50;;;;;10.23;74.05;99436.59;5116839;28;8856;-61
2023/03/19 03:48:31;;;;;;;;;1.00;1.00;;;;;10.30;73.83;99436.91;5116009;28;8958;-61
2023/03/19 03:50:58;;;;;;;;;0.25;0.00;;;;;10.35;73.41;99440.88;5116446;28;8812;-60
2023/03/19 03:53:26;;;;;;;;;1.00;1.00;;;;;10.38;73.21;99439.72;5117049;28;8816;-62
2023/03/19 03:55:53;;;;;;;;;4.00;3.00;;;;;10.41;73.14;99442.97;5116591;28;8848;-61
2023/03/19 03:58:22;;;;;;;;;1.00;1.00;;;;;10.43;73.21;99440.19;5116584;28;8824;-62
2023/03/19 04:00:51;;;;;;;;;1.00;1.00;;;;;10.46;73.12;99443.44;5115858;28;8828;-61
2023/03/19 04:03:19;;;;;;;;;2.00;2.00;;;;;10.48;72.88;99437.97;5116380;28;8824;-61
2023/03/19 04:05:47;;;;;;;;;2.00;2.00;;;;;10.51;73.43;99446.53;5115472;28;8955;-60
2023/03/19 04:08:14;;;;;;;;;3.25;2.50;;;;;10.52;73.03;99440.25;5116205;28;8832;-62
2023/03/19 04:10:42;;;;;;;;;1.50;1.50;;;;;10.54;73.37;99440.94;5116525;28;9497;-60
2023/03/19 04:13:10;;;;;;;;;3.00;3.00;;;;;10.55;73.00;99449.78;5116136;28;8838;-61
2023/03/19 04:15:38;;;;;;;;;3.75;3.00;;;;;10.56;73.20;99449.63;5116765;28;9504;-61
2023/03/19 04:18:05;;;;;;;;;3.25;3.25;;;;;10.59;72.99;99446.72;5115713;28;8824;-61
2023/03/19 04:20:33;;;;;;;;;3.25;3.00;;;;;10.62;72.98;99448.28;5116107;28;8886;-61
2023/03/19 04:23:02;;;;;;;;;3.00;3.00;;;;;10.67;72.54;99444.22;5116168;28;9483;-62
2023/03/19 04:25:29;;;;;;;;;3.00;3.00;;;;;10.73;72.43;99448.16;5116673;28;8913;-61
2023/03/19 04:27:57;;;;;;;;;4.00;3.00;;;;;10.76;72.59;99451.41;5116317;28;8827;-61
2023/03/19 04:30:25;;;;;;;;;1.00;1.00;;;;;10.78;72.54;99448.59;5116194;28;8839;-61
2023/03/19 04:32:52;;;;;;;;;3.00;3.00;;;;;10.81;72.46;99453.66;5115335;28;9505;-62
2023/03/19 04:35:21;;;;;;;;;4.00;4.00;;;;;10.81;72.38;99451.84;5115880;28;8820;-61
2023/03/19 04:37:49;;;;;;;;;5.00;4.50;;;;;10.84;72.82;99446.22;5116176;28;9482;-62
2023/03/19 04:40:17;;;;;;;;;3.50;3.50;;;;;10.87;72.40;99448.63;5115796;28;8823;-61
2023/03/19 04:42:44;;;;;;;;;3.50;3.50;;;;;10.90;72.18;99445.69;5116940;28;8816;-62
2023/03/19 04:45:12;;;;;;;;;3.50;3.50;;;;;10.94;72.45;99444.41;5115605;28;8847;-62
2023/03/19 04:47:41;;;;;;;;;2.00;2.00;;;;;10.99;72.30;99454.69;5116043;28;8820;-62
2023/03/19 04:50:09;;;;;;;;;4.00;4.00;;;;;11.01;72.81;99444.75;5116275;28;8832;-62
2023/03/19 04:52:38;;;;;;;;;3.50;3.00;;;;;11.02;72.26;99455.28;5115685;28;8866;-62
2023/03/19 04:55:05;;;;;;;;;3.25;3.25;;;;;11.03;72.22;99458.75;5115702;28;8831;-62
2023/03/19 04:57:33;;;;;;;;;3.75;3.75;;;;;11.03;72.38;99461.41;5115181;28;8929;-62
2023/03/19 05:00:01;;;;;;;;;3.00;3.00;;;;;11.04;72.03;99460.44;5114483;28;8820;-62
2023/03/19 05:02:28;;;;;;;;;3.00;3.00;;;;;11.04;72.37;99477.28;5114065;28;8828;-61
2023/03/19 05:04:56;;;;;;;;;3.75;3.00;;;;;11.06;72.27;99479.81;5114946;28;8844;-60
2023/03/19 05:07:25;;;;;;;;;4.00;4.00;;;;;11.08;72.76;99478.69;5115223;28;8871;-61
2023/03/19 05:09:53;;;;;;;;;3.00;3.00;;;;;11.10;72.17;99484.75;5115489;28;8816;-62
2023/03/19 05:12:20;;;;;;;;;3.00;3.00;;;;;11.11;72.76;99485.56;5115678;28;8827;-61
2023/03/19 05:14:48;;;;;;;;;3.75;3.75;;;;;11.10;72.12;99489.22;5115092;28;8953;-61
2023/03/19 05:17:16;;;;;;;;;3.25;3.25;;;;;11.08;72.42;99484.00;5114928;28;8843;-61
2023/03/19 05:19:43;;;;;;;;;5.00;4.50;;;;;11.08;72.13;99489.34;5115355;28;8862;-61
2023/03/19 05:22:11;;;;;;;;;4.50;3.50;;;;;11.06;72.55;99501.13;5115068;28;8796;-62
2023/03/19 05:24:39;;;;;;;;;1.00;1.00;;;;;11.02;73.16;99492.56;5115594;28;8838;-61
2023/03/19 05:27:08;;;;;;;;;3.75;3.50;;;;;10.99;72.83;99490.16;5115153;28;8839;-61
2023/03/19 05:29:35;;;;;;;;;3.25;3.25;;;;;10.98;72.85;99503.59;5114808;28;8826;-61
2023/03/19 05:32:07;;;;;;;;;3.00;1.00;;;;;10.94;72.66;99492.38;5115624;28;8820;-61
2023/03/19 05:34:34;;;;;;;;;3.50;3.50;;;;;10.94;72.65;99496.88;5114837;28;8852;-62
2023/03/19 05:37:02;;;;;;;;;3.00;3.00;;;;;10.97;72.37;99502.78;5115133;28;8858;-62
2023/03/19 05:39:30;;;;;;;;;3.75;3.75;;;;;11.04;72.55;99497.75;5115172;28;8815;-61
2023/03/19 05:41:58;;;;;;;;;3.00;2.50;;;;;11.08;72.71;99505.31;5114666;28;8914;-60
2023/03/19 05:44:25;;;;;;;;;3.00;3.00;;;;;11.13;72.67;99511.09;5119020;28;8839;-61
2023/03/19 05:46:53;;;;;;;;;1.00;0.50;;;;;11.16;72.15;99512.66;5118819;28;8913;-61
2023/03/19 05:49:21;;;;;;;;;1.50;1.50;;;;;11.14;72.39;99509.28;5118375;28;8849;-61
2023/03/19 05:51:48;;;;;;;;;1.00;1.00;;;;;11.11;72.23;99513.06;5118759;28;8835;-61
2023/03/19 05:54:16;;;;;;;;;2.00;2.00;;;;;11.11;72.27;99526.38;5118872;28;8878;-60
2023/03/19 05:56:44;;;;;;;;;3.00;3.00;;;;;11.13;72.25;99510.25;5118975;28;8838;-62
2023/03/19 05:59:11;;;;;;;;;1.00;1.00;;;;;11.10;72.93;99514.03;5118626;28;8830;-61
2023/03/19 06:01:39;;;;;;;;;3.00;3.00;;;;;11.06;72.92;99515.28;5118369;28;8890;-62
2023/03/19 06:04:07;;;;;;;;;1.00;1.00;;;;;11.03;72.45;99522.69;5118754;28;8832;-62
2023/03/19 06:06:35;;;;;;;;;0.25;0.25;;;;;10.98;72.55;99520.44;5119053;28;8855;-61
2023/03/19 06:09:03;;;;;;;;;3.00;3.00;;;;;10.96;72.86;99524.22;5118660;28;8816;-61
2023/03/19 06:11:30;;;;;;;;;3.00;2.00;;;;;10.93;73.30;99522.66;5118062;28;8843;-62
2023/03/19 06:13:59;;;;;;;;;1.50;1.00;;;;;10.93;72.86;99524.50;5118274;28;8839;-62
2023/03/19 06:16:27;;;;;;;;;1.00;1.00;;;;;10.94;73.47;99524.34;5118689;28;8820;-60
2023/03/19 06:18:55;;;;;;;;;3.00;3.00;;;;;10.97;72.75;99526.75;5118181;28;8844;-61
2023/03/19 06:21:24;;;;;;;;;3.50;3.50;;;;;11.01;72.45;99527.34;5118374;28;8851;-62
2023/03/19 06:23:52;;;;;;;;;1.00;1.00;;;;;11.05;72.39;99521.59;5118761;28;8836;-61
2023/03/19 06:26:20;;;;;;;;;1.00;0.75;;;;;11.08;72.84;99523.16;5118304;28;8835;-61
2023/03/19 06:28:48;;;;;;;;;3.00;2.00;;;;;11.12;72.16;99525.41;5118347;28;8824;-61
2023/03/19 06:31:16;;;;;;;;;2.50;2.00;;;;;11.20;71.91;99530.91;5117832;28;9582;-61
2023/03/19 06:33:43;;;;;;;;;2.00;2.00;;;;;11.27;71.91;99537.38;5117858;28;8848;-61
2023/03/19 06:36:11;;;;;;;;;3.00;3.00;;;;;11.33;71.98;99530.66;5118168;28;8950;-62
2023/03/19 06:38:39;;;;;;;;;1.00;1.00;;;;;11.39;71.72;99536.25;5118279;28;9501;-61
2023/03/19 06:41:07;;;;;;;;;2.00;2.00;;;;;11.49;71.75;99537.16;5118303;28;9512;-61
2023/03/19 06:43:36;;;;;;;;;3.25;3.25;;;;;11.61;71.25;99533.38;5118534;28;8847;-61
2023/03/19 06:46:03;;;;;;;;;3.25;3.00;;;;;11.74;71.11;99531.31;5118082;28;8831;-61
2023/03/19 06:48:31;;;;;;;;;3.00;3.00;;;;;11.90;70.66;99541.44;5117787;28;8893;-62
2023/03/19 06:50:59;;;;;;;;;1.00;1.00;;;;;12.03;70.61;99540.16;5118395;28;9547;-61
2023/03/19 06:53:28;;;;;;;;;3.00;3.00;;;;;12.18;70.76;99549.44;5117777;28;9602;-60
2023/03/19 06:55:55;;;;;;;;;3.25;3.25;;;;;12.29;70.68;99550.13;5117334;28;8941;-60
2023/03/19 06:58:23;;;;;;;;;1.50;1.50;;;;;12.39;70.15;99544.78;5117013;28;8835;-61
2023/03/19 07:00:51;;;;;;;;;1.00;1.00;;;;;12.46;70.38;99545.88;5117164;28;8816;-61
2023/03/19 07:03:19;;;;;;;;;1.50;1.00;;;;;12.50;69.83;99547.25;5117429;28;8816;-60
2023/03/19 07:05:47;;;;;;;;;3.00;1.00;;;;;12.52;69.69;99550.63;5117605;28;8861;-61
2023/03/19 07:08:14;;;;;;;;;1.00;0.50;;;;;12.46;70.52;99562.72;5117624;28;8839;-62
2023/03/19 07:10:42;;;;;;;;;3.25;2.00;;;;;12.37;70.64;99560.06;5117733;28;8905;-60
2023/03/19 07:13:11;;;;;;;;;0.00;0.00;;;;;12.37;70.75;99562.72;5117448;28;8838;-59
2023/03/19 07:15:39;;;;;;;;;3.00;3.00;;;;;12.36;70.72;99567.25;5117755;28;8836;-59
2023/03/19 07:18:07;;;;;;;;;4.00;2.00;;;;;12.35;70.98;99570.06;5117098;28;8843;-61
2023/03/19 07:20:35;;;;;;;;;3.00;3.00;;;;;12.35;70.84;99572.72;5109414;28;8835;-60
2023/03/19 07:23:03;;;;;;;;;3.25;1.50;;;;;12.34;71.07;99574.56;5117015;28;8945;-59
2023/03/19 07:25:31;;;;;;;;;3.00;2.50;;;;;12.34;71.08;99581.72;5117226;28;8828;-61
2023/03/19 07:27:59;;;;;;;;;3.00;3.00;;;;;12.34;70.81;99571.91;5117273;28;8854;-60
2023/03/19 07:30:27;;;;;;;;;3.50;1.50;;;;;12.36;70.62;99574.41;5116911;28;8828;-61
2023/03/19 07:32:55;;;;;;;;;2.00;1.00;;;;;12.39;70.97;99579.47;5117184;28;8832;-62
2023/03/19 07:35:23;;;;;;;;;2.00;2.00;;;;;12.43;70.94;99579.06;5116779;28;8854;-59
2023/03/19 07:37:51;;;;;;;;;3.00;3.00;;;;;12.51;70.55;99578.31;5116085;28;8870;-61
2023/03/19 07:40:19;;;;;;;;;3.25;2.50;;;;;12.61;70.37;99580.00;5116034;28;9519;-61
2023/03/19 07:42:47;;;;;;;;;3.50;3.50;;;;;12.71;70.41;99577.31;5117563;28;8826;-61
2023/03/19 07:45:14;;;;;;;;;6.25;4.50;;;;;12.83;70.40;99576.16;5116431;28;8850;-60
2023/03/19 07:47:42;;;;;;;;;4.00;4.00;;;;;12.93;69.62;99571.63;5116094;28;8861;-61
2023/03/19 07:50:10;;;;;;;;;3.00;3.00;;;;;13.02;69.87;99576.97;5116187;28;8866;-60
2023/03/19 07:52:38;;;;;;;;;5.00;4.00;;;;;13.14;69.76;99574.97;5115974;28;8827;-61
2023/03/19 07:55:06;;;;;;;;;6.50;5.00;;;;;13.27;69.23;99578.97;5116440;28;8839;-59
2023/03/19 07:57:33;;;;;;;;;3.50;2.50;;;;;13.42;69.20;99584.66;5115944;28;8835;-61
2023/03/19 08:00:01;;;;;;;;;9.00;9.00;;;;;13.56;68.54;99584.16;5114586;28;8835;-59
2023/03/19 08:02:30;;;;;;;;;3.75;3.75;;;;;13.70;68.25;99583.66;5115112;28;8869;-59
2023/03/19 08:05:00;;;;;;;;;7.00;7.00;;;;;13.83;68.50;99584.16;5116137;28;8839;-60
2023/03/19 08:07:28;;;;;;;;;7.00;5.00;;;;;13.93;68.49;99580.41;5113793;28;8836;-59
2023/03/19 08:09:57;;;;;;;;;4.00;4.00;;;;;14.02;67.71;99581.31;5116217;28;8852;-59
2023/03/19 08:12:24;;;;;;;;;6.00;6.00;;;;;14.09;68.12;99579.72;5116272;28;8933;-59
2023/03/19 08:14:52;;;;;;;;;5.00;4.00;;;;;14.08;68.15;99584.25;5116089;28;8849;-60
2023/03/19 08:17:20;;;;;;;;;6.00;6.00;;;;;14.06;67.92;99586.25;5115501;28;8871;-61
2023/03/19 08:19:48;;;;;;;;;5.25;5.25;;;;;14.05;68.12;99594.41;5116018;28;8856;-62
2023/03/19 08:22:16;;;;;;;;;6.00;6.00;;;;;14.01;67.81;99599.22;5114918;28;8893;-59
2023/03/19 08:24:44;;;;;;;;;9.00;6.50;;;;;13.99;68.25;99598.56;5115160;28;9552;-59
2023/03/19 08:27:11;;;;;;;;;7.00;6.00;;;;;13.96;68.29;99598.00;5113641;28;8843;-58
2023/03/19 08:29:39;;;;;;;;;8.00;6.50;;;;;13.93;68.42;99596.47;5112913;28;8824;-59
2023/03/19 08:32:07;;;;;;;;;3.50;3.50;;;;;13.90;68.17;99602.09;5114372;28;8834;-62
2023/03/19 08:34:35;;;;;;;;;3.50;3.50;;;;;13.89;68.53;99595.06;5115129;28;8846;-60
2023/03/19 08:37:03;;;;;;;;;4.00;4.00;;;;;13.89;68.03;99605.78;5114957;28;8834;-59
2023/03/19 08:39:30;;;;;;;;;3.75;3.75;;;;;13.86;68.60;99610.59;5115356;28;8838;-60
2023/03/19 08:41:58;;;;;;;;;6.25;6.00;;;;;13.83;68.68;99616.25;5115466;28;8839;-59
2023/03/19 08:44:27;;;;;;;;;3.00;3.00;;;;;13.78;68.58;99621.22;5115737;28;8901;-58
2023/03/19 08:46:55;;;;;;;;;5.50;4.50;;;;;13.72;69.02;99619.97;5115915;28;8943;-59
2023/03/19 08:49:23;;;;;;;;;5.50;5.50;;;;;13.69;68.78;99630.16;5116137;28;8890;-58
2023/03/19 08:51:50;;;;;;;;;5.00;5.00;;;;;13.64;68.49;99629.75;5116036;28;8857;-60
2023/03/19 08:54:18;;;;;;;;;4.25;3.50;;;;;13.60;68.98;99633.72;5115862;28;9559;-62
2023/03/19 08:56:49;;;;;;;;;1.00;1.00;;;;;13.58;69.39;99627.69;5115553;28;8958;-59
2023/03/19 08:59:17;;;;;;;;;3.00;3.00;;;;;13.62;69.52;99634.41;5114902;28;8800;-59
2023/03/19 09:01:45;;;;;;;;;3.00;3.00;;;;;13.62;69.33;99637.06;5114108;28;8860;-61
2023/03/19 09:04:13;;;;;;;;;4.00;4.00;;;;;13.58;69.01;99644.56;5115111;28;8828;-59
2023/03/19 09:06:41;;;;;;;;;3.00;2.50;;;;;13.59;68.68;99627.50;5115143;28;8839;-60
2023/03/19 09:09:09;;;;;;;;;1.00;1.00;;;;;13.63;69.44;99634.25;5115618;28;8834;-60
2023/03/19 09:11:37;;;;;;;;;3.00;3.00;;;;;13.70;68.94;99643.38;5115429;28;8839;-59
2023/03/19 09:14:06;;;;;;;;;3.00;3.00;;;;;13.77;69.10;99638.28;5115655;28;8832;-59
2023/03/19 09:16:33;;;;;;;;;2.50;2.50;;;;;13.85;68.63;99646.38;5115024;28;8855;-59
2023/03/19 09:19:02;;;;;;;;;3.00;3.00;;;;;14.00;67.95;99644.88;5118240;28;8852;-59
2023/03/19 09:21:30;;;;;;;;;3.00;3.00;;;;;14.21;67.48;99637.44;5119079;28;8844;-59
2023/03/19 09:23:58;;;;;;;;;4.00;3.75;;;;;14.43;67.55;99631.63;5119130;28;9493;-59
2023/03/19 09:26:25;;;;;;;;;3.00;3.00;;;;;14.63;66.83;99638.53;5118708;28;8843;-59
2023/03/19 09:28:54;;;;;;;;;1.00;1.00;;;;;15.03;66.08;99644.19;5118513;28;8823;-59
2023/03/19 09:31:22;;;;;;;;;1.50;1.50;;;;;15.47;65.64;99640.47;5118988;28;8820;-60
2023/03/19 09:33:50;;;;;;;;;4.50;3.50;;;;;15.63;65.14;99640.53;5118706;28;8823;-59
2023/03/19 09:36:18;;;;;;;;;1.00;1.00;;;;;15.63;65.34;99635.97;5118692;28;8842;-59
2023/03/19 09:38:46;;;;;;;;;4.00;4.00;;;;;15.60;64.96;99641.69;5117926;28;8881;-60
2023/03/19 09:41:14;;;;;;;;;4.00;4.00;;;;;15.51;65.52;99644.47;5119204;28;9532;-59
2023/03/19 09:43:42;;;;;;;;;6.00;6.00;;;;;15.41;65.32;99643.78;5118970;28;8836;-59
2023/03/19 09:46:10;;;;;;;;;9.00;7.50;;;;;15.31;65.71;99651.94;5118004;28;8950;-59
2023/03/19 09:48:38;;;;;;;;;6.75;6.00;;;;;15.21;65.58;99655.69;5118281;28;8840;-59
2023/03/19 09:51:06;;;;;;;;;6.50;6.00;;;;;15.10;66.69;99658.66;5118712;28;8824;-59
2023/03/19 09:53:34;;;;;;;;;6.75;5.50;;;;;15.00;66.93;99652.53;5117783;28;9504;-59
2023/03/19 09:56:03;;;;;;;;;6.50;6.50;;;;;14.99;66.86;99658.88;5117968;28;8840;-59
2023/03/19 09:58:30;;;;;;;;;7.00;6.50;;;;;15.02;66.25;99661.28;5117448;28;8840;-59
2023/03/19 10:00:58;;;;;;;;;5.00;3.75;;;;;15.16;66.35;99658.84;5116753;28;9484;-59
2023/03/19 10:03:26;;;;;;;;;8.75;8.00;;;;;15.34;65.87;99664.19;5117220;28;8836;-59
2023/03/19 10:05:54;;;;;;;;;5.00;5.00;;;;;15.58;65.55;99659.81;5116640;28;8828;-59
2023/03/19 10:08:22;;;;;;;;;5.50;5.00;;;;;16.15;63.96;99648.25;5115693;28;8839;-59
2023/03/19 10:10:50;;;;;;;;;4.00;3.25;;;;;17.02;62.77;99650.19;5116564;28;8917;-59
2023/03/19 10:13:19;;;;;;;;;6.50;6.50;;;;;17.66;61.36;99647.38;5116335;28;8850;-59
2023/03/19 10:15:47;;;;;;;;;5.40;5.20;;;;;17.79;60.78;99633.34;5116731;28;8823;-60
2023/03/19 10:18:15;;;;;;;;;6.80;3.80;;;;;17.84;61.22;99634.50;5116221;28;8824;-60
2023/03/19 10:20:44;;;;;;;;;7.00;5.20;;;;;17.89;60.90;99642.06;5116631;28;9576;-59
2023/03/19 10:23:12;;;;;;;;;4.40;4.00;;;;;19.09;59.14;99641.22;5116586;28;8815;-59
2023/03/19 10:25:40;;;;;;;;;4.00;3.40;;;;;20.30;56.85;99636.94;5117422;28;8836;-60
2023/03/19 10:28:08;;;;;;;;;3.80;3.80;;;;;21.20;55.08;99633.47;5117347;28;8861;-59
2023/03/19 10:30:36;;;;;;;;;1.80;1.80;;;;;21.41;54.14;99630.69;5115753;28;8842;-59
2023/03/19 10:33:04;;;;;;;;;5.20;4.00;;;;;21.16;55.49;99643.00;5116590;28;8847;-60
2023/03/19 10:35:37;;;;;;;;;3.00;3.00;;;;;20.83;55.54;99633.75;5117030;28;8897;-59
2023/03/19 10:38:05;;;;;;;;;4.00;3.40;;;;;20.40;56.65;99642.88;5116831;28;8828;-59
2023/03/19 10:40:33;;;;;;;;;6.40;6.40;;;;;19.93;57.54;99649.75;5115893;28;8859;-60
2023/03/19 10:43:01;;;;;;;;;6.80;5.40;;;;;19.56;58.17;99655.31;5116578;28;8824;-59
2023/03/19 10:45:29;;;;;;;;;3.60;3.60;;;;;19.16;58.96;99648.41;5117309;28;8867;-58
2023/03/19 10:47:57;;;;;;;;;5.40;4.00;;;;;18.82;59.72;99652.63;5115869;28;8865;-60
2023/03/19 10:50:25;;;;;;;;;4.00;3.80;;;;;18.58;60.62;99656.34;5116759;28;8844;-60
2023/03/19 10:52:53;;;;;;;;;4.00;3.20;;;;;18.49;60.59;99643.94;5115398;28;8816;-59
2023/03/19 10:55:21;;;;;;;;;5.20;4.00;;;;;18.51;59.97;99658.06;5115977;28;8835;-62
2023/03/19 10:57:50;;;;;;;;;3.00;3.00;;;;;18.79;59.88;99648.41;5115644;28;8823;-59
2023/03/19 11:00:18;;;;;;;;;3.00;1.80;;;;;19.37;58.70;99647.72;5116311;28;8843;-59
2023/03/19 11:02:46;;;;;;;;;3.60;3.60;;;;;19.69;57.96;99650.06;5116299;28;8956;-60
2023/03/19 11:05:14;;;;;;;;;4.00;3.00;;;;;20.60;55.90;99641.22;5116555;28;8912;-60
2023/03/19 11:07:42;;;;;;;;;3.00;2.40;;;;;21.21;54.87;99641.41;5115208;28;8913;-60
2023/03/19 11:10:11;;;;;;;;;1.00;1.00;;;;;21.41;54.52;99641.53;5115344;28;8851;-59
2023/03/19 11:12:39;;;;;;;;;2.00;2.00;;;;;21.90;52.52;99642.25;5115064;28;8831;-60
2023/03/19 11:15:07;;;;;;;;;2.80;2.00;;;;;22.30;52.27;99639.50;5115618;28;8823;-60
2023/03/19 11:17:35;;;;;;;;;1.40;1.40;;;;;23.11;51.06;99638.41;5116649;28;8958;-60
2023/03/19 11:20:02;;;;;;;;;1.00;1.00;;;;;23.01;51.15;99643.44;5116111;28;8924;-59
2023/03/19 11:22:31;;;;;;;;;2.00;2.00;;;;;22.81;51.44;99635.28;5115797;28;8850;-59
2023/03/19 11:24:59;;;;;;;;;2.40;2.40;;;;;22.89;50.84;99651.38;5114987;28;9659;-59
2023/03/19 11:27:28;;;;;;;;;1.60;1.60;;;;;22.67;51.29;99646.31;5114081;28;8865;-60
2023/03/19 11:29:56;;;;;;;;;2.80;2.80;;;;;22.29;52.11;99647.84;5114103;28;8840;-59
2023/03/19 11:32:24;;;;;;;;;2.40;2.00;;;;;21.89;53.32;99643.31;5113788;28;8851;-59
2023/03/19 11:34:52;;;;;;;;;1.80;1.80;;;;;21.35;54.06;99648.56;5114117;28;8893;-60
2023/03/19 11:37:21;;;;;;;;;3.60;3.60;;;;;20.67;55.80;99651.06;5115119;28;8877;-60
2023/03/19 11:39:49;;;;;;;;;2.80;2.80;;;;;20.28;56.26;99667.91;5115426;28;8844;-59
2023/03/19 11:42:18;;;;;;;;;1.20;1.20;;;;;20.83;55.01;99652.69;5114152;28;8970;-59
2023/03/19 11:44:46;;;;;;;;;1.60;1.60;;;;;22.26;52.00;99637.41;5115521;28;8972;-60
2023/03/19 11:47:14;;;;;;;;;2.00;2.00;;;;;23.43;49.79;99634.88;5114616;28;8844;-60